Time;durP1;ratioP1;P1;durP2;ratioP2;P2;SDS_P1;SDS_P2;PMS_P1;PMS_P2;Temp;Humidity;BMP_temperature;BMP_pressure;BME280_temperature;BME280_humidity;BME280_pressure;Samples;Min_cycle;Max_cycle;Signal;HPM_P1;HPM_P2
2021/01/07 00:01:48;;;;;;;78.07;35.28;;;;;;;1.85;83.42;98184.56;2141695;83;21304;-65
2021/01/07 00:04:50;;;;;;;78.50;36.23;;;;;;;1.86;83.41;98179.76;2141817;83;21289;-64
2021/01/07 00:07:52;;;;;;;72.58;34.60;;;;;;;1.87;83.19;98178.87;2141667;83;21145;-64
2021/01/07 00:10:54;;;;;;;77.03;34.45;;;;;;;1.80;83.26;98180.45;2141597;83;21166;-64
2021/01/07 00:13:56;;;;;;;74.50;35.15;;;;;;;1.76;83.25;98178.86;2141571;83;21300;-65
2021/01/07 00:16:58;;;;;;;73.75;34.35;;;;;;;1.70;83.40;98178.63;2141748;83;21178;-64
2021/01/07 00:20:01;;;;;;;79.03;36.40;;;;;;;1.67;83.52;98176.16;2141365;83;21130;-64
2021/01/07 00:23:03;;;;;;;78.97;36.55;;;;;;;1.72;83.89;98175.53;2141683;83;21295;-64
2021/01/07 00:26:05;;;;;;;81.82;38.98;;;;;;;1.79;83.74;98175.70;2141992;83;21280;-64
2021/01/07 00:29:07;;;;;;;80.55;35.30;;;;;;;1.79;83.59;98169.23;2141602;83;21712;-66
2021/01/07 00:32:09;;;;;;;78.57;36.85;;;;;;;1.73;83.53;98171.59;2142005;83;21276;-64
2021/01/07 00:35:12;;;;;;;80.40;37.42;;;;;;;1.72;83.73;98180.27;2141814;83;21304;-64
2021/01/07 00:38:14;;;;;;;80.75;38.83;;;;;;;1.82;83.93;98179.93;2141633;83;21780;-64
2021/01/07 00:41:16;;;;;;;85.85;38.63;;;;;;;1.82;83.55;98187.69;2114579;83;21316;-64
2021/01/07 00:44:18;;;;;;;84.97;38.85;;;;;;;1.82;83.59;98178.64;2141551;83;21293;-64
2021/01/07 00:47:21;;;;;;;81.22;38.35;;;;;;;1.86;83.80;98181.51;2141522;83;21288;-63
2021/01/07 00:50:23;;;;;;;85.40;38.40;;;;;;;1.97;83.71;98179.39;2141560;83;21288;-64
2021/01/07 00:53:25;;;;;;;80.38;39.13;;;;;;;1.97;83.36;98174.21;2141546;83;21272;-64
2021/01/07 00:56:27;;;;;;;82.12;39.58;;;;;;;1.95;83.46;98173.41;2141934;83;21292;-65
2021/01/07 00:59:29;;;;;;;84.00;39.25;;;;;;;1.93;83.38;98171.80;2141605;83;21729;-64
2021/01/07 01:02:31;;;;;;;82.33;40.30;;;;;;;1.95;83.44;98179.04;2141990;83;21141;-64
2021/01/07 01:05:33;;;;;;;82.65;39.50;;;;;;;1.93;83.36;98180.39;2141474;81;21272;-64
2021/01/07 01:08:36;;;;;;;85.45;41.37;;;;;;;1.97;83.66;98170.33;2141702;83;21138;-64
2021/01/07 01:11:38;;;;;;;81.20;40.25;;;;;;;2.12;83.50;98167.62;2141944;83;21325;-64
2021/01/07 01:14:40;;;;;;;89.90;42.67;;;;;;;2.15;83.45;98164.91;2141625;83;21309;-64
2021/01/07 01:17:42;;;;;;;84.92;40.83;;;;;;;2.24;83.06;98167.17;2141472;83;21304;-64
2021/01/07 01:20:44;;;;;;;107.97;48.28;;;;;;;2.14;83.05;98163.25;2141728;83;21744;-64
2021/01/07 01:23:46;;;;;;;100.02;45.03;;;;;;;2.21;83.57;98166.42;2141508;83;21276;-64
2021/01/07 01:26:48;;;;;;;94.60;42.60;;;;;;;2.25;82.93;98171.42;2141778;83;21312;-64
2021/01/07 01:29:50;;;;;;;89.95;40.08;;;;;;;2.21;82.91;98169.02;2141607;83;21285;-64
2021/01/07 01:32:53;;;;;;;90.05;40.70;;;;;;;2.29;83.47;98162.27;2141679;83;21320;-64
2021/01/07 01:35:55;;;;;;;86.55;41.23;;;;;;;2.38;82.81;98178.73;2141506;83;21265;-64
2021/01/07 01:38:57;;;;;;;88.92;40.48;;;;;;;2.33;82.98;98169.86;2141680;83;21154;-64
2021/01/07 01:41:59;;;;;;;85.00;40.05;;;;;;;2.37;82.97;98169.27;2141602;83;21589;-64
2021/01/07 01:45:01;;;;;;;83.12;38.85;;;;;;;2.33;82.87;98174.17;2141493;83;21272;-64
2021/01/07 01:48:03;;;;;;;82.92;38.90;;;;;;;2.30;82.68;98173.00;2141836;83;21307;-66
2021/01/07 01:51:05;;;;;;;77.75;38.90;;;;;;;2.22;82.70;98168.95;2141698;83;21291;-68
2021/01/07 01:54:08;;;;;;;83.67;39.03;;;;;;;2.13;82.73;98173.19;2141656;83;21288;-64
2021/01/07 01:57:10;;;;;;;81.72;39.25;;;;;;;2.06;82.84;98175.16;2141894;83;21320;-67
2021/01/07 02:00:12;;;;;;;79.55;38.48;;;;;;;2.12;83.27;98172.79;2141537;83;21273;-66
2021/01/07 02:03:14;;;;;;;80.38;38.42;;;;;;;2.11;82.95;98162.50;2141930;83;21317;-65
2021/01/07 02:06:16;;;;;;;81.20;39.35;;;;;;;2.09;83.06;98167.73;2141565;83;21288;-65
2021/01/07 02:09:18;;;;;;;83.05;38.28;;;;;;;2.06;83.08;98162.22;2141671;83;21292;-65
2021/01/07 02:12:21;;;;;;;76.77;38.30;;;;;;;2.05;83.05;98158.39;2141441;83;21309;-66
2021/01/07 02:15:23;;;;;;;78.65;37.78;;;;;;;2.04;83.13;98152.82;2141830;83;21569;-64
2021/01/07 02:18:25;;;;;;;78.45;38.05;;;;;;;2.05;83.14;98151.93;2141500;83;21292;-66
2021/01/07 02:21:28;;;;;;;88.25;41.13;;;;;;;2.02;83.21;98141.70;2114476;83;21284;-64
2021/01/07 02:24:30;;;;;;;93.85;44.35;;;;;;;2.02;83.18;98134.77;2141458;83;21265;-66
2021/01/07 02:27:32;;;;;;;77.72;37.45;;;;;;;2.00;83.30;98139.17;2141689;83;21137;-65
2021/01/07 02:30:34;;;;;;;83.95;39.88;;;;;;;2.14;83.79;98135.22;2141456;83;21292;-67
2021/01/07 02:33:37;;;;;;;89.70;39.27;;;;;;;2.29;83.41;98138.52;2141438;83;21716;-66
2021/01/07 02:36:39;;;;;;;84.72;40.10;;;;;;;2.33;82.90;98137.94;2141864;83;21146;-64
2021/01/07 02:39:41;;;;;;;81.40;38.50;;;;;;;2.24;83.02;98137.41;2141676;83;21716;-64
2021/01/07 02:42:43;;;;;;;90.10;39.25;;;;;;;2.18;82.89;98135.03;2141906;83;21159;-64
2021/01/07 02:45:45;;;;;;;84.67;38.78;;;;;;;2.14;82.97;98139.09;2141675;83;21280;-65
2021/01/07 02:48:47;;;;;;;82.70;38.25;;;;;;;2.10;82.96;98142.70;2141332;83;21292;-67
2021/01/07 02:51:49;;;;;;;83.72;37.60;;;;;;;2.05;83.13;98141.58;2141647;83;21280;-65
2021/01/07 02:54:51;;;;;;;78.75;35.68;;;;;;;2.10;83.32;98138.38;2141806;83;21284;-64
2021/01/07 02:57:54;;;;;;;;;;;;;;;2.24;83.29;98141.29;2143797;83;21776;-66
2021/01/07 03:00:57;;;;;;;79.20;35.92;;;;;;;2.22;82.89;98146.95;2141545;83;20151;-64
2021/01/07 03:03:59;;;;;;;73.37;35.73;;;;;;;2.18;82.99;98144.55;2141662;83;21733;-64
2021/01/07 03:07:01;;;;;;;75.95;33.42;;;;;;;2.15;82.88;98140.79;2141407;83;21297;-64
2021/01/07 03:10:03;;;;;;;74.90;35.00;;;;;;;2.14;83.31;98139.09;2141416;83;21138;-64
2021/01/07 03:13:05;;;;;;;74.60;35.30;;;;;;;2.24;83.12;98140.00;2141545;83;21712;-64
2021/01/07 03:16:07;;;;;;;73.22;35.70;;;;;;;2.26;83.01;98138.64;2141720;83;21165;-64
2021/01/07 03:19:09;;;;;;;79.45;36.28;;;;;;;2.30;83.11;98148.41;2141596;83;21721;-65
2021/01/07 03:22:11;;;;;;;75.57;34.13;;;;;;;2.29;82.80;98144.16;2141409;83;21134;-65
2021/01/07 03:25:16;;;;;;;72.65;33.83;;;;;;;2.17;82.73;98143.72;2141634;83;21732;-66
2021/01/07 03:28:18;;;;;;;71.33;33.02;;;;;;;2.11;82.83;98134.88;2141551;83;21277;-64
2021/01/07 03:31:20;;;;;;;71.00;33.70;;;;;;;2.04;82.93;98138.16;2141387;83;21159;-64
2021/01/07 03:34:22;;;;;;;72.58;34.53;;;;;;;1.96;82.97;98141.48;2141855;83;21283;-64
2021/01/07 03:37:25;;;;;;;68.57;33.18;;;;;;;1.93;83.19;98137.72;2141188;83;21142;-65
2021/01/07 03:40:28;;;;;;;72.85;34.83;;;;;;;1.88;83.21;98140.48;2141351;83;21153;-64
2021/01/07 03:43:30;;;;;;;68.92;32.25;;;;;;;1.83;83.40;98140.25;2141752;83;21348;-64
2021/01/07 03:46:32;;;;;;;69.80;32.48;;;;;;;1.82;83.38;98146.31;2141486;83;21696;-64
2021/01/07 03:49:34;;;;;;;74.90;33.20;;;;;;;1.77;83.52;98147.78;2141396;83;21162;-64
2021/01/07 03:52:36;;;;;;;74.58;31.95;;;;;;;1.75;83.61;98144.39;2141843;83;21288;-64
2021/01/07 03:55:38;;;;;;;72.20;32.93;;;;;;;1.74;83.53;98144.02;2141459;83;21328;-64
2021/01/07 03:58:40;;;;;;;74.07;33.88;;;;;;;1.71;83.65;98147.98;2141768;83;21296;-64
2021/01/07 04:01:44;;;;;;;72.65;33.25;;;;;;;1.66;83.67;98146.86;2141378;83;21621;-64
2021/01/07 04:04:46;;;;;;;74.90;34.25;;;;;;;1.69;83.83;98148.49;2141519;83;21709;-64
2021/01/07 04:07:48;;;;;;;76.55;34.78;;;;;;;1.65;83.80;98146.48;2141267;83;21123;-64
2021/01/07 04:10:51;;;;;;;;;;;;;;;1.67;83.96;98139.50;2144008;83;21289;-65
2021/01/07 04:13:53;;;;;;;77.45;34.05;;;;;;;1.65;83.92;98132.69;2141511;83;20227;-64
2021/01/07 04:16:55;;;;;;;75.08;34.63;;;;;;;1.53;83.93;98133.98;2141542;83;21693;-64
2021/01/07 04:19:57;;;;;;;74.90;34.05;;;;;;;1.44;84.17;98131.70;2141370;83;21141;-64
2021/01/07 04:22:59;;;;;;;77.72;35.80;;;;;;;1.36;84.39;98130.69;2141358;83;21280;-65
2021/01/07 04:26:01;;;;;;;72.58;33.75;;;;;;;1.31;84.58;98133.90;2141329;83;21146;-64
2021/01/07 04:29:03;;;;;;;74.90;34.88;;;;;;;1.35;84.64;98132.44;2141838;83;21146;-65
2021/01/07 04:32:06;;;;;;;79.97;36.00;;;;;;;1.40;84.62;98134.86;2141592;83;21269;-64
2021/01/07 04:35:08;;;;;;;75.52;36.00;;;;;;;1.44;84.50;98130.41;2141586;83;21312;-67
2021/01/07 04:38:10;;;;;;;81.63;36.68;;;;;;;1.43;84.52;98128.74;2141482;83;21276;-67
2021/01/07 04:41:12;;;;;;;83.52;37.08;;;;;;;1.34;84.49;98125.58;2141582;83;21297;-66
2021/01/07 04:44:14;;;;;;;79.82;37.42;;;;;;;1.31;84.63;98121.81;2141815;83;21301;-68
2021/01/07 04:47:16;;;;;;;80.38;37.67;;;;;;;1.32;84.73;98126.09;2141424;83;22212;-65
2021/01/07 04:50:18;;;;;;;75.80;34.18;;;;;;;1.33;84.74;98120.47;2141351;83;21126;-66
2021/01/07 04:53:20;;;;;;;82.88;37.85;;;;;;;1.33;84.75;98118.71;2141443;83;21740;-64
2021/01/07 04:56:23;;;;;;;83.25;36.10;;;;;;;1.36;84.61;98123.77;2141308;83;21130;-64
2021/01/07 04:59:25;;;;;;;83.15;35.98;;;;;;;1.35;84.57;98123.39;2141340;83;21301;-65
2021/01/07 05:02:27;;;;;;;81.90;37.03;;;;;;;1.38;84.56;98123.75;2141417;83;21288;-65
2021/01/07 05:05:29;;;;;;;83.55;36.45;;;;;;;1.37;84.42;98124.63;2141695;83;21320;-64
2021/01/07 05:08:31;;;;;;;80.15;35.88;;;;;;;1.30;84.37;98126.58;2141449;83;21281;-65
2021/01/07 05:11:33;;;;;;;72.30;32.05;;;;;;;1.25;84.44;98126.34;2141983;83;21276;-65
2021/01/07 05:14:35;;;;;;;78.07;34.73;;;;;;;1.18;84.69;98133.47;2141618;83;21272;-65
2021/01/07 05:17:39;;;;;;;74.32;33.58;;;;;;;1.11;84.66;98135.41;2141511;83;21764;-69
2021/01/07 05:20:41;;;;;;;72.40;32.58;;;;;;;1.07;84.60;98134.28;2141605;83;21285;-64
2021/01/07 05:23:43;;;;;;;73.75;34.60;;;;;;;0.99;84.82;98132.80;2141739;83;21264;-65
2021/01/07 05:26:45;;;;;;;71.75;33.60;;;;;;;0.89;84.75;98132.70;2141475;83;21285;-64
2021/01/07 05:29:47;;;;;;;73.60;34.38;;;;;;;0.88;84.84;98133.59;2141704;83;21304;-65
2021/01/07 05:32:49;;;;;;;75.47;33.50;;;;;;;0.86;84.83;98136.66;2141703;83;21284;-64
2021/01/07 05:35:51;;;;;;;82.15;35.48;;;;;;;0.79;84.70;98130.00;2141975;83;21150;-65
2021/01/07 05:38:54;;;;;;;;;;;;;;;0.77;84.76;98138.26;2143882;83;21792;-65
2021/01/07 05:41:56;;;;;;;78.27;32.90;;;;;;;0.73;84.79;98143.12;2141615;83;20223;-65
2021/01/07 05:44:58;;;;;;;80.72;33.20;;;;;;;0.72;85.01;98146.16;2141697;83;21284;-64
2021/01/07 05:48:00;;;;;;;73.80;32.65;;;;;;;0.72;84.90;98146.58;2141574;83;21280;-64
2021/01/07 05:51:03;;;;;;;73.75;33.18;;;;;;;0.71;84.71;98148.79;2141708;83;21594;-64
2021/01/07 05:54:05;;;;;;;81.67;35.33;;;;;;;0.70;84.66;98147.92;2141967;83;21284;-64
2021/01/07 05:57:07;;;;;;;72.05;32.00;;;;;;;0.74;84.58;98152.10;2141507;83;21728;-64
2021/01/07 06:00:09;;;;;;;69.97;28.57;;;;;;;0.74;84.45;98147.40;2141677;83;21712;-65
2021/01/07 06:03:11;;;;;;;75.20;31.42;;;;;;;0.65;84.64;98152.41;2114471;83;21299;-64
2021/01/07 06:06:13;;;;;;;72.27;30.32;;;;;;;0.55;85.08;98144.53;2141584;83;21927;-64
2021/01/07 06:09:16;;;;;;;74.42;31.85;;;;;;;0.47;85.39;98153.81;2141644;83;21300;-64
2021/01/07 06:12:18;;;;;;;80.53;34.45;;;;;;;0.44;85.69;98156.48;2141697;83;21712;-64
2021/01/07 06:15:20;;;;;;;74.25;29.48;;;;;;;0.43;85.73;98158.66;2141710;83;21289;-64
2021/01/07 06:18:22;;;;;;;78.05;32.63;;;;;;;0.40;86.11;98161.34;2141534;83;21312;-65
2021/01/07 06:21:27;;;;;;;68.67;29.20;;;;;;;0.38;86.11;98163.14;2141449;83;21784;-64
2021/01/07 06:24:29;;;;;;;69.87;29.37;;;;;;;0.31;86.25;98163.30;2141668;83;21708;-65
2021/01/07 06:27:31;;;;;;;62.45;25.77;;;;;;;0.26;85.94;98164.33;2141425;83;21289;-64
2021/01/07 06:30:34;;;;;;;66.65;28.90;;;;;;;0.20;86.06;98165.35;2141321;83;21327;-64
2021/01/07 06:33:37;;;;;;;63.35;27.95;;;;;;;0.23;86.00;98164.42;2141554;83;21162;-64
2021/01/07 06:36:39;;;;;;;63.70;25.50;;;;;;;0.26;85.84;98171.64;2141383;83;21177;-65
2021/01/07 06:39:41;;;;;;;65.55;25.37;;;;;;;0.25;86.25;98173.81;2141561;83;21293;-64
2021/01/07 06:42:44;;;;;;;62.40;24.43;;;;;;;0.22;86.47;98172.62;2141429;83;21268;-64
2021/01/07 06:45:46;;;;;;;59.85;23.15;;;;;;;0.26;86.48;98173.36;2141596;83;21308;-66
2021/01/07 06:48:48;;;;;;;61.58;26.80;;;;;;;0.29;86.40;98177.99;2141547;83;21285;-67
2021/01/07 06:51:51;;;;;;;61.53;25.35;;;;;;;0.30;86.54;98183.56;2141664;83;21613;-64
2021/01/07 06:54:53;;;;;;;68.52;26.25;;;;;;;0.30;86.76;98186.14;2141666;83;21280;-64
2021/01/07 06:57:55;;;;;;;67.25;27.73;;;;;;;0.33;86.75;98188.63;2114409;83;21296;-64
2021/01/07 07:00:57;;;;;;;66.47;26.77;;;;;;;0.35;86.73;98192.45;2141414;83;21107;-64
2021/01/07 07:03:59;;;;;;;64.90;24.77;;;;;;;0.37;86.68;98199.69;2141906;83;21287;-65
2021/01/07 07:07:01;;;;;;;64.72;27.40;;;;;;;0.38;86.78;98202.67;2139876;83;21162;-64
2021/01/07 07:10:03;;;;;;;65.65;25.57;;;;;;;0.40;86.52;98204.75;2124936;83;21298;-65
2021/01/07 07:13:06;;;;;;;68.75;28.40;;;;;;;0.43;86.76;98214.14;2124836;83;21293;-65
2021/01/07 07:16:08;;;;;;;69.67;28.40;;;;;;;0.47;86.75;98215.74;2124557;83;21277;-66
2021/01/07 07:19:11;;;;;;;67.17;29.20;;;;;;;0.45;86.79;98222.70;2124883;84;21166;-67
2021/01/07 07:22:18;;;;;;;65.30;27.95;;;;;;;0.42;86.89;98222.80;2124468;84;21270;-64
2021/01/07 07:25:20;;;;;;;86.22;31.07;;;;;;;0.37;86.93;98229.36;2124894;83;21313;-65
2021/01/07 07:28:22;;;;;;;89.47;35.65;;;;;;;0.34;87.46;98230.73;2124626;84;21745;-64
2021/01/07 07:31:25;;;;;;;83.33;31.77;;;;;;;0.29;87.65;98233.45;2124540;84;21288;-63
2021/01/07 07:34:27;;;;;;;62.45;22.45;;;;;;;0.27;87.86;98242.96;2125011;83;21146;-64
2021/01/07 07:37:29;;;;;;;77.40;30.65;;;;;;;0.27;88.65;98248.12;2124601;84;21729;-64
2021/01/07 07:40:31;;;;;;;84.70;32.15;;;;;;;0.23;88.64;98247.83;2124774;84;21725;-64
2021/01/07 07:43:34;;;;;;;;;;;;;;;0.22;88.71;98247.87;2127213;83;21337;-64
2021/01/07 07:46:37;;;;;;;64.32;23.20;;;;;;;0.22;89.28;98252.58;2124887;83;20228;-65
2021/01/07 07:49:39;;;;;;;60.98;24.00;;;;;;;0.16;89.46;98254.89;2124894;83;21182;-64
2021/01/07 07:52:41;;;;;;;56.25;21.40;;;;;;;0.17;89.62;98254.43;2124502;83;21601;-64
2021/01/07 07:55:43;;;;;;;59.45;23.62;;;;;;;0.16;89.48;98257.92;2124550;83;21605;-63
2021/01/07 07:58:46;;;;;;;59.93;23.45;;;;;;;0.16;89.17;98263.08;2124399;84;21622;-64
2021/01/07 08:01:49;;;;;;;58.25;23.18;;;;;;;0.20;89.39;98262.53;2124536;84;21273;-63
2021/01/07 08:04:51;;;;;;;51.92;20.50;;;;;;;0.22;89.06;98266.77;2124428;83;21310;-64
2021/01/07 08:07:54;;;;;;;55.88;20.95;;;;;;;0.26;89.06;98274.83;2124846;82;21190;-65
2021/01/07 08:10:56;;;;;;;49.15;18.55;;;;;;;0.24;88.89;98271.42;2124539;83;21748;-65
2021/01/07 08:13:59;;;;;;;55.58;21.57;;;;;;;0.24;88.83;98274.01;2124664;83;21263;-66
2021/01/07 08:17:01;;;;;;;51.53;20.30;;;;;;;0.26;88.56;98279.12;2124469;84;21147;-65
2021/01/07 08:20:07;;;;;;;45.63;18.48;;;;;;;0.29;88.54;98279.90;2124471;83;21341;-64
2021/01/07 08:23:09;;;;;;;50.40;19.62;;;;;;;0.31;88.32;98280.69;2124731;83;21305;-64
2021/01/07 08:26:11;;;;;;;;;;;;;;;0.32;88.26;98289.29;2127374;83;21140;-64
2021/01/07 08:29:13;;;;;;;44.18;17.75;;;;;;;0.32;88.16;98288.00;2104428;84;20510;-65
2021/01/07 08:32:15;;;;;;;44.98;17.48;;;;;;;0.32;88.48;98293.16;2124616;84;21158;-65
2021/01/07 08:35:17;;;;;;;38.90;15.80;;;;;;;0.36;88.37;98294.77;2104159;84;21284;-66
2021/01/07 08:38:20;;;;;;;40.12;15.88;;;;;;;0.32;88.36;98297.03;2124594;84;21300;-65
2021/01/07 08:41:22;;;;;;;44.58;17.15;;;;;;;0.29;88.49;98298.41;2124641;84;21587;-64
2021/01/07 08:44:25;;;;;;;42.78;17.20;;;;;;;0.28;88.64;98296.70;2124672;83;21273;-64
2021/01/07 08:47:27;;;;;;;38.35;13.65;;;;;;;0.27;88.73;98298.42;2124899;84;21598;-67
2021/01/07 08:50:29;;;;;;;41.05;15.38;;;;;;;0.25;88.45;98306.66;2124911;83;21150;-64
2021/01/07 08:53:32;;;;;;;40.05;15.55;;;;;;;0.21;88.47;98306.34;2124940;84;21746;-69
2021/01/07 08:56:34;;;;;;;38.13;15.72;;;;;;;0.16;88.57;98316.79;2124809;84;21295;-66
2021/01/07 08:59:37;;;;;;;31.48;12.07;;;;;;;0.17;88.32;98308.59;2124902;84;21729;-66
2021/01/07 09:02:39;;;;;;;35.78;13.88;;;;;;;0.15;88.29;98318.95;2124584;83;21139;-64
2021/01/07 09:05:41;;;;;;;35.48;13.50;;;;;;;0.14;88.56;98316.00;2124675;83;21737;-63
2021/01/07 09:08:44;;;;;;;34.50;13.03;;;;;;;0.15;88.28;98312.97;2132570;83;21197;-66
2021/01/07 09:11:46;;;;;;;33.85;12.07;;;;;;;0.15;88.36;98318.13;2141739;83;21146;-65
2021/01/07 09:14:48;;;;;;;30.95;12.43;;;;;;;0.15;88.50;98316.37;2141880;83;21299;-67
2021/01/07 09:17:52;;;;;;;29.67;11.20;;;;;;;0.14;88.34;98322.45;2141461;83;21173;-66
2021/01/07 09:20:54;;;;;;;30.25;11.35;;;;;;;0.15;87.99;98319.41;2141413;83;21312;-68
2021/01/07 09:23:57;;;;;;;28.77;10.65;;;;;;;0.12;88.04;98321.63;2141611;83;21319;-65
2021/01/07 09:26:59;;;;;;;31.33;12.33;;;;;;;0.12;87.67;98326.78;2141687;83;21720;-66
2021/01/07 09:30:01;;;;;;;30.62;11.68;;;;;;;0.11;87.46;98316.51;2141963;83;21280;-66
2021/01/07 09:33:03;;;;;;;31.62;12.98;;;;;;;0.12;87.17;98320.79;2141927;83;21791;-66
2021/01/07 09:36:06;;;;;;;30.90;11.22;;;;;;;0.13;87.32;98319.88;2141678;83;21288;-65
2021/01/07 09:39:08;;;;;;;32.00;11.35;;;;;;;0.14;87.45;98319.87;2141788;83;21162;-63
2021/01/07 09:42:10;;;;;;;30.37;10.98;;;;;;;0.12;87.32;98319.05;2141760;83;21297;-65
2021/01/07 09:45:12;;;;;;;33.15;11.88;;;;;;;0.11;87.08;98322.95;2141510;83;21260;-65
2021/01/07 09:48:14;;;;;;;28.75;10.43;;;;;;;0.09;87.12;98317.01;2141554;83;21281;-64
2021/01/07 09:51:17;;;;;;;34.98;13.38;;;;;;;0.07;87.30;98323.50;2141612;83;21711;-64
2021/01/07 09:54:20;;;;;;;32.13;12.37;;;;;;;0.09;87.48;98322.16;2141664;83;21300;-65
2021/01/07 09:57:22;;;;;;;30.65;10.88;;;;;;;0.12;87.30;98320.34;2141553;83;21586;-67
2021/01/07 10:00:25;;;;;;;33.98;12.90;;;;;;;0.14;87.11;98324.16;2141696;83;21288;-67
2021/01/07 10:03:27;;;;;;;32.40;11.22;;;;;;;0.19;87.10;98324.89;2141454;83;21122;-68
2021/01/07 10:06:29;;;;;;;31.75;12.25;;;;;;;0.22;86.79;98323.97;2141877;83;21166;-68
2021/01/07 10:09:31;;;;;;;31.97;11.50;;;;;;;0.29;86.86;98323.75;2141446;83;21701;-71
2021/01/07 10:12:33;;;;;;;31.42;10.38;;;;;;;0.39;86.26;98314.45;2141908;83;21276;-70
2021/01/07 10:15:35;;;;;;;30.25;10.63;;;;;;;0.43;85.94;98310.48;2141516;83;21737;-64
2021/01/07 10:18:38;;;;;;;32.45;11.95;;;;;;;0.51;85.22;98316.70;2141877;83;21333;-64
2021/01/07 10:21:40;;;;;;;31.70;12.28;;;;;;;0.58;85.58;98310.48;2141471;83;21272;-65
2021/01/07 10:24:42;;;;;;;31.30;12.13;;;;;;;0.67;85.60;98309.36;2141541;83;21307;-65
2021/01/07 10:27:44;;;;;;;30.52;11.80;;;;;;;0.65;85.36;98309.41;2141409;83;21300;-66
2021/01/07 10:30:46;;;;;;;29.12;10.72;;;;;;;0.67;85.54;98304.20;2141903;83;21295;-64
2021/01/07 10:33:49;;;;;;;28.20;10.35;;;;;;;0.84;85.04;98304.55;2141443;83;21123;-64
2021/01/07 10:36:51;;;;;;;28.05;9.93;;;;;;;0.94;84.21;98305.58;2141599;83;21740;-64
2021/01/07 10:39:53;;;;;;;28.90;9.58;;;;;;;0.88;83.69;98309.19;2141422;83;21310;-64
2021/01/07 10:42:55;;;;;;;28.62;10.10;;;;;;;0.81;83.36;98307.67;2141399;83;21169;-68
2021/01/07 10:45:57;;;;;;;26.57;8.80;;;;;;;0.75;83.88;98311.28;2141432;83;21273;-64
2021/01/07 10:49:00;;;;;;;25.27;9.53;;;;;;;0.80;84.21;98305.52;2141653;83;21134;-64
2021/01/07 10:52:02;;;;;;;27.75;10.08;;;;;;;0.79;83.40;98305.14;2141437;83;21163;-64
2021/01/07 10:55:04;;;;;;;27.45;9.85;;;;;;;0.73;84.33;98301.89;2141643;83;21308;-65
2021/01/07 10:58:06;;;;;;;31.75;11.43;;;;;;;0.75;84.43;98298.80;2141588;83;21296;-66
2021/01/07 11:01:08;;;;;;;33.05;12.30;;;;;;;0.82;84.67;98302.89;2138600;83;21141;-67
2021/01/07 11:04:13;;;;;;;28.77;10.98;;;;;;;0.87;84.82;98299.73;2141639;83;21288;-65
2021/01/07 11:07:15;;;;;;;24.43;8.38;;;;;;;0.86;84.53;98307.94;2141240;83;21146;-66
2021/01/07 11:10:17;;;;;;;29.50;10.75;;;;;;;0.76;83.92;98301.79;2141338;81;21131;-66
2021/01/07 11:13:20;;;;;;;40.05;15.13;;;;;;;0.59;84.74;98307.44;2141488;83;21284;-66
2021/01/07 11:16:22;;;;;;;32.10;11.05;;;;;;;0.55;85.38;98300.67;2141847;83;21284;-67
2021/01/07 11:19:24;;;;;;;32.03;12.10;;;;;;;0.52;85.01;98296.47;2141242;83;21690;-66
2021/01/07 11:22:26;;;;;;;31.87;11.65;;;;;;;0.54;84.90;98299.00;2141394;83;21138;-67
2021/01/07 11:25:29;;;;;;;32.20;11.95;;;;;;;0.52;84.47;98296.47;2141814;83;21175;-65
2021/01/07 11:28:31;;;;;;;30.10;12.18;;;;;;;0.58;85.27;98301.44;2114524;83;21297;-64
2021/01/07 11:31:37;;;;;;;;;;;;;;;0.66;85.02;98287.88;2144042;83;21304;-64
2021/01/07 11:34:38;;;;;;;29.23;10.90;;;;;;;0.73;84.03;98295.43;2141159;83;20184;-68
2021/01/07 11:37:41;;;;;;;28.90;10.08;;;;;;;0.68;84.17;98284.80;2141544;83;21320;-69
2021/01/07 11:40:43;;;;;;;27.40;9.05;;;;;;;0.61;83.96;98287.16;2141842;83;21297;-64
2021/01/07 11:43:45;;;;;;;27.02;9.98;;;;;;;0.59;83.59;98290.66;2141618;83;21268;-66
2021/01/07 11:46:47;;;;;;;28.70;10.00;;;;;;;0.56;83.91;98292.05;2141329;83;21134;-64
2021/01/07 11:49:49;;;;;;;28.73;9.68;;;;;;;0.51;84.52;98295.60;2141597;83;21304;-65
2021/01/07 11:52:51;;;;;;;27.75;10.30;;;;;;;0.49;84.45;98293.98;2141522;83;21292;-64
2021/01/07 11:55:54;;;;;;;29.65;10.90;;;;;;;0.49;85.13;98286.23;2141233;83;21175;-66
2021/01/07 11:58:56;;;;;;;30.10;11.83;;;;;;;0.46;84.64;98279.84;2141832;83;21296;-66
2021/01/07 12:01:59;;;;;;;34.63;13.10;;;;;;;0.49;85.36;98286.23;2141449;83;21178;-64
2021/01/07 12:05:01;;;;;;;35.83;13.60;;;;;;;0.52;85.72;98278.41;2141746;83;21158;-64
2021/01/07 12:08:03;;;;;;;41.13;15.40;;;;;;;0.56;85.57;98282.59;2114414;83;21280;-65
2021/01/07 12:11:05;;;;;;;30.77;11.00;;;;;;;0.56;85.81;98281.72;2141430;81;21158;-67
2021/01/07 12:14:07;;;;;;;32.35;13.48;;;;;;;0.47;85.71;98286.70;2141839;83;21280;-64
2021/01/07 12:17:11;;;;;;;31.30;11.55;;;;;;;0.44;86.18;98271.31;2141320;83;21186;-65
2021/01/07 12:20:13;;;;;;;27.73;10.20;;;;;;;0.48;85.76;98287.95;2141467;83;21323;-64
2021/01/07 12:23:15;;;;;;;29.90;11.05;;;;;;;0.46;86.18;98283.30;2141361;83;21149;-65
2021/01/07 12:26:17;;;;;;;35.85;13.80;;;;;;;0.52;85.99;98286.14;2141341;83;21169;-65
2021/01/07 12:29:19;;;;;;;34.83;13.00;;;;;;;0.58;86.37;98284.67;2141489;83;21744;-65
2021/01/07 12:32:22;;;;;;;29.65;11.33;;;;;;;0.58;85.93;98287.70;2141815;83;21268;-64
2021/01/07 12:35:24;;;;;;;25.50;8.85;;;;;;;0.59;86.23;98290.23;2141340;83;21177;-64
2021/01/07 12:38:26;;;;;;;31.60;10.98;;;;;;;0.54;85.10;98288.22;2141682;83;21325;-66
2021/01/07 12:41:28;;;;;;;30.43;10.60;;;;;;;0.42;85.68;98281.69;2114437;83;21728;-65
2021/01/07 12:44:31;;;;;;;31.33;9.78;;;;;;;0.45;85.04;98293.66;2141817;83;21288;-65
2021/01/07 12:47:33;;;;;;;30.85;11.00;;;;;;;0.45;84.63;98298.82;2141327;83;21102;-64
2021/01/07 12:50:35;;;;;;;26.12;10.13;;;;;;;0.44;85.46;98287.63;2141808;83;21299;-64
2021/01/07 12:53:37;;;;;;;29.20;10.25;;;;;;;0.41;85.45;98294.63;2141386;83;21150;-64
2021/01/07 12:56:39;;;;;;;25.92;8.13;;;;;;;0.37;85.62;98299.47;2141482;83;21709;-64
2021/01/07 12:59:41;;;;;;;30.45;11.53;;;;;;;0.30;85.51;98299.66;2141792;83;21320;-64
2021/01/07 13:02:45;;;;;;;31.62;12.33;;;;;;;0.26;85.87;98307.50;2141329;83;21181;-66
2021/01/07 13:05:48;;;;;;;34.98;14.07;;;;;;;0.20;86.14;98307.22;2141198;83;21137;-65
2021/01/07 13:08:50;;;;;;;29.90;11.33;;;;;;;0.19;86.39;98309.42;2141410;83;21753;-64
2021/01/07 13:11:52;;;;;;;34.95;13.08;;;;;;;0.20;85.58;98316.70;2141836;83;21296;-64
2021/01/07 13:14:54;;;;;;;;;;;;;;;0.20;85.80;98309.80;2143910;83;21280;-64
2021/01/07 13:17:57;;;;;;;22.50;6.97;;;;;;;0.28;84.80;98314.77;2141877;83;20235;-65
2021/01/07 13:20:59;;;;;;;31.27;10.78;;;;;;;0.26;83.74;98322.55;2141302;83;21597;-64
2021/01/07 13:24:01;;;;;;;29.25;10.38;;;;;;;0.23;85.02;98317.91;2141435;83;21749;-64
2021/01/07 13:27:03;;;;;;;27.27;8.73;;;;;;;0.26;85.20;98332.00;2141307;83;21162;-64
2021/01/07 13:30:05;;;;;;;25.40;8.93;;;;;;;0.22;84.80;98338.16;2141672;83;21283;-65
2021/01/07 13:33:08;;;;;;;31.37;11.08;;;;;;;0.16;84.61;98332.72;2114628;83;21276;-64
2021/01/07 13:36:10;;;;;;;27.52;9.13;;;;;;;0.14;85.15;98334.48;2141747;83;21297;-65
2021/01/07 13:39:12;;;;;;;24.20;8.65;;;;;;;0.11;84.90;98339.27;2141506;83;21292;-64
2021/01/07 13:42:14;;;;;;;28.62;10.32;;;;;;;0.08;84.38;98337.23;2141727;83;21779;-64
2021/01/07 13:45:16;;;;;;;27.32;9.83;;;;;;;0.07;85.17;98345.84;2141536;83;21331;-64
2021/01/07 13:48:19;;;;;;;28.38;9.80;;;;;;;0.09;85.12;98335.89;2114440;83;21281;-64
2021/01/07 13:51:22;;;;;;;26.55;9.25;;;;;;;0.07;84.99;98341.55;2114494;83;21272;-63
2021/01/07 13:54:24;;;;;;;25.05;8.10;;;;;;;0.08;84.68;98344.97;2141737;83;21293;-64
2021/01/07 13:57:27;;;;;;;23.77;7.65;;;;;;;0.07;84.24;98348.42;2114531;83;21305;-64
2021/01/07 14:00:29;;;;;;;21.70;6.58;;;;;;;0.06;83.51;98353.16;2141961;83;21268;-64
2021/01/07 14:03:31;;;;;;;25.17;8.25;;;;;;;0.04;82.99;98361.40;2141461;83;21164;-64
2021/01/07 14:06:33;;;;;;;21.65;7.28;;;;;;;0.00;83.54;98355.48;2141661;83;21353;-64
2021/01/07 14:09:36;;;;;;;29.10;8.83;;;;;;;-0.03;83.80;98360.70;2136689;83;21285;-64
2021/01/07 14:12:38;;;;;;;;;;;;;;;-0.07;83.73;98361.23;2127155;84;21615;-64